Terminal Aerodrome Forecast
Issued by NWS

Home | Current Version | Previous Version | Text Only | Print | Product List | Glossary On
Versions: 1 2 3 4 5 6 7 8 9 10 11 12 13 14 15 16 17 18 19
000
FTUS44 KEWX 161100
TAFSSF
TAF
KSSF 161122Z 1612/1712 02005KT P6SM FEW035 SCT200
     FM161500 08007KT P6SM BKN040
      TEMPO 1618/1622 VRB20G30KT 5SM TSRA BKN030CB
     FM170600 12005KT P6SM VCSH BKN025=

USA.gov is the U.S. government's official web portal to all federal, state and local government web resources and services.